Upson, Wisconsin
Current Conditions -  °F | °C
As of 12:55 PM on Sunday 23 Nov 2014 (Local Time) from KIWD Reporting Station
Overcast Overcast  
Wind Chill: 44°   Ceiling: 500
Heat Index: 46°   Visibility: 9mi
Dew Point: 45°   Wind: 6mph
Humidity: 93%   Direction: 200°SSW
Pressure: 29.39"   Gusts: NA
Location:  46.37°N, 90.41°W
Report Text: KIWD 231855Z AUTO 20005KT 9SM OVC005 08/07 A2939 RMK AO1
Loading
Personal Weather Stations






























Interactive Weather Map New forecast layout! Learn more

10-Day Weather Forecast

Advertisements
Track Severe Weather on mobile